Flight Track Log - Related Links

Times and Time Zones

All times are in EDT time to prevent confusion due to time zone crossing. See the CHQ4986 flight status page for this flight to view local times or setup timezone preferences in your user account.

Time Position Orientation Groundspeed Altitude Reporting Facility
EDT Latitude Longitude Course Direction KTS MPH feet Rate Location/Type
Sat 02:47:00 PM 42.7512 -74.1563 285° West  Level Estimated
Sat 02:48:00 PM 42.7516 -74.2745 283° West  Level Estimated
Sat 02:49:00 PM 42.7966 -74.3755 301° West  Level FlightAware Approximate
Sat 02:49:50 PM 42.8378 -74.1447 285° West 260 299 11,300  Level Boston Center
Sat 02:50:00 PM 42.7965 -74.4937 281° West  Level Estimated
Sat 02:50:50 PM 42.9011 -74.2369 313° West 285 328 12,600  Level Boston Center
Sat 02:51:00 PM 42.8317 -74.6018 294° West  Level FlightAware Approximate
Sat 02:51:50 PM 42.9558 -74.3181 313° West 313 360 13,900  Level Boston Center
Sat 02:52:00 PM 42.8667 -74.7100 294° West  Level FlightAware Approximate
Sat 02:52:51 PM 43.0106 -74.4247 305° West 323 372 15,300  Level Boston Center
Sat 02:53:00 PM 42.8656 -74.8284 285° West  Level Estimated
Sat 02:53:52 PM 43.0272 -74.5275 283° West 310 357 16,500  Level Boston Center
Sat 02:54:00 PM 42.8644 -74.9467 283° West  Level Estimated
Sat 02:54:52 PM 43.0397 -74.6503 278° West 310 357 18,000  Level Boston Center
Sat 02:55:00 PM 42.8630 -75.0650 285° West  Level Estimated
Sat 02:55:50 PM 43.0497 -74.7672 277° West 316 364 19,900  Level Boston Center
Sat 02:56:50 PM 43.0581 -74.8725 276° West 303 349 21,400 1,388 Climbing Boston Center
Sat 02:57:51 PM 43.0661 -74.9808 276° West 297 342 22,700 1,240 Climbing Boston Center
Sat 02:58:51 PM 43.0761 -75.0922 277° West 297 342 23,900 1,150 Climbing Boston Center
Sat 02:59:51 PM 43.0858 -75.2036 277° West 297 342 25,000 1,289 Climbing Boston Center
Sat 03:00:52 PM 43.0936 -75.3119 276° West 297 342 26,500 1,361 Climbing Boston Center
Sat 03:01:50 PM 43.1014 -75.4147 276° West 292 336 27,700 1,068 Climbing Boston Center
Sat 03:02:50 PM 43.1111 -75.5206 277° West 292 336 28,600 843 Climbing Boston Center
Sat 03:03:51 PM 43.1167 -75.6231 274° West 286 329 29,400 689 Climbing Boston Center
Sat 03:04:52 PM 43.1239 -75.7317 275° West 286 329 30,000 298 Climbing Boston Center
Sat 03:05:52 PM 43.1353 -75.8489 278° West 299 344 30,000 407 Level Boston Center
Sat 03:06:50 PM 43.1442 -75.9661 276° West 309 356 30,800 1,210 Climbing Boston Center
Sat 03:07:51 PM 43.1531 -76.0778 276° West 309 356 32,400 1,025 Climbing Boston Center
Sat 03:10:09 PM 43.1603 -76.3186 272° West 288 331 34,200 780 Climbing Cleveland Center
Sat 03:11:11 PM 43.1581 -76.4253 268° West 283 326 35,000 677 Climbing Cleveland Center
Sat 03:12:13 PM 43.1575 -76.5328 270° West 283 326 35,600 484 Climbing Cleveland Center
Sat 03:13:15 PM 43.1572 -76.6428 270° West 286 329 36,000 195 Climbing Cleveland Center
Sat 03:14:16 PM 43.1558 -76.7825 269° West 305 351 36,000  Level Cleveland Center
Sat 03:15:18 PM 43.1542 -76.9028 269° West 316 364 36,000  Level Cleveland Center
Sat 03:16:20 PM 43.1528 -77.0281 269° West 328 377 36,000  Level Cleveland Center
Sat 03:17:22 PM 43.1522 -77.1533 270° West 332 382 36,000  Level Cleveland Center
Sat 03:18:24 PM 43.1506 -77.2817 269° West 338 389 36,000  Level Cleveland Center
Sat 03:19:26 PM 43.1483 -77.4369 269° West 342 394 36,000  Level Cleveland Center
Sat 03:20:27 PM 43.1464 -77.5697 269° West 349 402 36,000  Level Cleveland Center
Sat 03:21:29 PM 43.1447 -77.7000 269° West 347 399 36,000  Level Cleveland Center
Sat 03:22:31 PM 43.1428 -77.8286 269° West 342 394 36,000  Level Cleveland Center
Sat 03:23:33 PM 43.1394 -77.9558 268° West 339 390 36,000  Level Cleveland Center
Sat 03:24:35 PM 43.1375 -78.0836 269° West 338 389 36,000  Level Cleveland Center
Sat 03:25:37 PM 43.1347 -78.2344 269° West 335 386 36,000  Level Cleveland Center
Sat 03:26:38 PM 43.1319 -78.3617 268° West 335 386 36,000  Level Cleveland Center
Sat 03:27:40 PM 43.1289 -78.4911 268° West 339 390 36,000  Level Cleveland Center
Sat 03:28:42 PM 43.1253 -78.6247 268° West 351 404 36,000  Level Cleveland Center
Sat 03:29:44 PM 43.1219 -78.7494 268° West 334 384 36,000  Level Cleveland Center
Sat 03:30:46 PM 43.1194 -78.8744 268° West 328 377 36,000  Level Cleveland Center
Sat 03:31:48 PM 43.1150 -79.0269 268° West 337 388 36,000  Level Cleveland Center
Sat 03:32:49 PM 43.1119 -79.1567 268° West 341 392 36,000  Level Cleveland Center
Sat 03:33:51 PM 43.1078 -79.2897 268° West 349 402 36,000  Level Cleveland Center
Sat 03:34:53 PM 43.1042 -79.4258 268° West 358 412 36,000  Level Cleveland Center
Sat 03:35:55 PM 43.1000 -79.5617 268° West 357 411 36,000  Level Cleveland Center
Sat 03:36:57 PM 43.0956 -79.6983 267° West 362 417 36,000  Level Cleveland Center
Sat 03:37:59 PM 43.0892 -79.8611 267° West 357 411 36,000  Level Cleveland Center
Sat 03:39:00 PM 43.0864 -79.9819 268° West 362 417 36,000  Level Cleveland Center
Sat 03:40:02 PM 43.0800 -80.1225 266° West 369 425 36,000  Level Cleveland Center
Sat 03:41:04 PM 43.0733 -80.2872 267° West 371 427 36,000  Level Cleveland Center
Sat 03:42:05 PM 43.0667 -80.4333 266° West 380 437 36,000  Level Toronto Center
Sat 03:43:05 PM 43.0500 -80.5667 260° West 370 426 36,000  Level Toronto Center
Sat 03:45:11 PM 43.0492 -80.8556 270° West 366 421 36,000  Level Cleveland Center
Sat 03:46:05 PM 43.0333 -80.9833 260° West 360 414 36,000  Level Toronto Center
Sat 03:47:06 PM 43.0167 -81.1167 260° West 370 426 36,000  Level Toronto Center
Sat 03:48:05 PM 43.0167 -81.2500 270° West 370 426 36,000  Level Toronto Center
Sat 03:49:05 PM 43.0167 -81.4167 270° West 380 437 36,000  Level Toronto Center
Sat 03:50:05 PM 43.0167 -81.5500 270° West 380 437 36,000  Level Toronto Center
Sat 03:51:05 PM 43.0167 -81.6833 270° West 370 426 36,000  Level Toronto Center
Sat 03:52:05 PM 43.0167 -81.8167 270° West 370 426 36,000  Level Toronto Center
Sat 03:53:05 PM 43.0000 -81.9667 261° West 380 437 36,000  Level Toronto Center
Sat 03:54:05 PM 43.0000 -82.1167 270° West 380 437 36,000  Level Toronto Center
Sat 03:55:05 PM 43.0000 -82.2500 270° West 380 437 36,000  Level Toronto Center
Sat 03:56:05 PM 43.0000 -82.4167 270° West 380 437 36,000  Level Toronto Center
Sat 03:57:05 PM 43.0000 -82.5500 270° West 380 437 36,000  Level Toronto Center
Sat 03:58:05 PM 42.9833 -82.6833 260° West 380 437 36,000  Level Toronto Center
Sat 03:58:36 PM 42.9978 -82.7525 286° West 379 436 36,000  Level Cleveland Center
Sat 03:59:38 PM 42.9936 -82.9281 268° West 387 445 36,000  Level Cleveland Center
Sat 04:00:40 PM 42.9886 -83.0719 267° West 384 442 36,000  Level Cleveland Center
Sat 04:01:42 PM 42.9833 -83.2158 267° West 381 438 36,000  Level Cleveland Center
Sat 04:02:44 PM 42.9783 -83.3594 267° West 385 443 36,000  Level Cleveland Center
Sat 04:03:46 PM 42.9744 -83.5014 268° West 379 436 36,000  Level Cleveland Center
Sat 04:04:48 PM 42.9692 -83.6456 267° West 383 441 36,000  Level Cleveland Center
Sat 04:05:50 PM 42.9586 -83.8147 265° West 377 434 36,000  Level Cleveland Center
Sat 04:06:52 PM 42.9453 -83.9539 263° West 374 430 36,000  Level Cleveland Center
Sat 04:07:54 PM 42.9311 -84.0953 262° West 379 436 36,000 -48 Level Cleveland Center
Sat 04:08:56 PM 42.9175 -84.2372 263° West 380 437 35,900 -968 Descending Cleveland Center
Sat 04:09:58 PM 42.9036 -84.3925 263° West 375 432 34,000 -1,742 Descending Cleveland Center
Sat 04:11:00 PM 42.8892 -84.5325 262° West 374 430 32,300 -968 Descending Cleveland Center
Sat 04:12:02 PM 42.8756 -84.6706 262° West 369 425 32,000 -145 Descending Cleveland Center
Sat 04:13:04 PM 42.8603 -84.8117 262° West 376 433 32,000  Level Cleveland Center
Sat 04:14:06 PM 42.8456 -84.9567 262° West 385 443 32,000  Level Cleveland Center
Sat 04:15:08 PM 42.8278 -85.1319 262° West 390 449 32,000 -194 Level Cleveland Center
Sat 04:16:10 PM 42.8111 -85.2783 261° West 391 450 31,600 -1,416 Descending Cleveland Center
Sat 04:21:21 PM 42.6980 -85.9840 261° West 100 115 23,200 -1,709 Descending FlightAware ADS-B
Sat 04:22:01 PM 42.6810 -86.0790 256° West 380 437 21,600 -1,745 Descending FlightAware ADS-B
Sat 04:22:16 PM 42.6770 -86.1040 258° West 375 432 21,600 -923 Level FlightAware ADS-B
Sat 04:23:06 PM 42.6570 -86.2080 255° West 367 422 20,600 -209 Descending FlightAware ADS-B
Sat 04:23:42 PM 42.6390 -86.3060 256° West 370 426 21,300 -450 Climbing FlightAware ADS-B
Sat 04:24:26 PM 42.6240 -86.3860 256° West 370 426 20,000 -2,700 Descending FlightAware ADS-B
Sat 04:25:02 PM 42.6060 -86.4760 255° West 416 479 17,700 -2,684 Descending FlightAware ADS-B
Sat 04:25:42 PM 42.5930 -86.5550 257° West 275 316 16,600 -857 Descending FlightAware ADS-B
Sat 04:26:19 PM 42.5890 -86.6090 264° West 275 316 16,600 -2,215 Level FlightAware ADS-B
Sat 04:26:47 PM 42.5650 -86.6960 249° West 275 316 14,200 -2,083 Descending FlightAware ADS-B
Sat 04:27:31 PM 42.5540 -86.7650 258° West 275 316 14,100 -74 Descending FlightAware ADS-B
Sat 04:28:08 PM 42.5460 -86.8180 258° West 275 316 14,100  Level FlightAware ADS-B
Sat 04:28:44 PM 42.5380 -86.8700 258° West 275 316 14,100 -1,611 Level FlightAware ADS-B
Sat 04:30:37 PM 42.4510 -87.1270 245° Southwest 275 316 10,100 -1,850 Descending FlightAware ADS-B
Sat 04:30:57 PM 42.4420 -87.1580 249° West 265 305 10,000 -130 Descending FlightAware ADS-B
Sat 04:31:23 PM 42.4310 -87.1920 246° West 265 305 10,000  Level FlightAware ADS-B
Sat 04:31:47 PM 42.4210 -87.2230 246° West 265 305 10,000  Level FlightAware ADS-B
Sat 04:32:12 PM 42.4110 -87.2550 247° West 265 305 10,000  Level FlightAware ADS-B
Sat 04:32:24 PM 42.4060 -87.2710 247° West 265 305 10,000  Level FlightAware ADS-B
Sat 04:32:48 PM 42.3960 -87.3020 246° West 265 305 10,000 -1,782 Level FlightAware ADS-B
Sat 04:34:05 PM 42.2167 -87.2833 246° West 254 292 7,000 -1,409 Descending Chicago TRACON
Sat 04:35:00 PM 42.1667 -87.3333 217° Southwest 258 297 6,900 -365 Descending Chicago TRACON
Sat 04:36:00 PM 42.1167 -87.4000 225° Southwest 249 287 6,300 -474 Descending Chicago TRACON
Sat 04:36:54 PM 42.0667 -87.4500 217° Southwest 238 274 6,000 -579 Descending Chicago TRACON
Sat 04:37:54 PM 42.0333 -87.5167 236° Southwest 237 273 5,200 -950 Descending Chicago TRACON
Sat 04:38:54 PM 41.9833 -87.5833 225° Southwest 233 268 4,100 -632 Descending Chicago TRACON
Sat 04:39:48 PM 41.9833 -87.6500 270° West 187 215 4,000 -474 Descending Chicago TRACON
Sat 04:40:48 PM 41.9833 -87.7167 270° West 187 215 3,200 -900 Descending Chicago TRACON
Sat 04:41:48 PM 41.9833 -87.7833 270° West 173 199 2,200 -850 Descending Chicago TRACON
Sat 04:42:48 PM 41.9833 -87.8333 270° West 137 158 1,500 -700 Descending Chicago TRACON

Login

Don't have an account? Register now (free) for customized features, flight alerts, and more!